createdAt,value
2018-03-18T00:00:54.959Z,-0.89
2018-03-18T00:01:55.204Z,-0.91
2018-03-18T00:02:55.170Z,-0.95
2018-03-18T00:03:55.153Z,-0.83
2018-03-18T00:04:55.421Z,-0.86
2018-03-18T00:05:54.890Z,-0.91
2018-03-18T00:06:55.153Z,-0.95
2018-03-18T00:07:55.042Z,-0.94
2018-03-18T00:08:55.024Z,-0.94
2018-03-18T00:09:55.261Z,-0.83
2018-03-18T00:10:54.696Z,-0.91
2018-03-18T00:11:55.198Z,-0.94
2018-03-18T00:12:55.177Z,-0.94
2018-03-18T00:13:54.924Z,-0.94
2018-03-18T00:14:54.859Z,-0.91
2018-03-18T00:15:54.833Z,-0.92
2018-03-18T00:16:54.808Z,-0.95
2018-03-18T00:17:54.513Z,-0.92
2018-03-18T00:18:55.025Z,-0.89
2018-03-18T00:19:54.727Z,-0.94
2018-03-18T00:20:54.705Z,-0.91
2018-03-18T00:21:54.424Z,-0.91
2018-03-18T00:22:54.664Z,-0.87
2018-03-18T00:23:54.622Z,-0.92
2018-03-18T00:24:54.601Z,-0.91
2018-03-18T00:25:54.577Z,-0.92
2018-03-18T00:26:54.541Z,-0.95
2018-03-18T00:27:54.794Z,-0.91
2018-03-18T00:28:54.487Z,-0.87
2018-03-18T00:29:54.798Z,-0.91
2018-03-18T00:30:54.758Z,-0.91
2018-03-18T00:31:54.148Z,-0.92
2018-03-18T00:32:54.381Z,-0.87
2018-03-18T00:33:54.634Z,-0.94
2018-03-18T00:34:54.066Z,-0.91
2018-03-18T00:35:54.313Z,-0.91
2018-03-18T00:36:54.278Z,-0.92
2018-03-18T00:37:53.995Z,-0.92
2018-03-18T00:38:53.963Z,-0.94
2018-03-18T00:39:53.937Z,-0.91
2018-03-18T00:40:54.177Z,-0.91
2018-03-18T00:41:54.418Z,-0.86
2018-03-18T00:42:54.130Z,-0.86
2018-03-18T00:43:54.096Z,-0.89
2018-03-18T00:44:54.335Z,-0.92
2018-03-18T00:45:54.045Z,-0.99
2018-03-18T00:46:54.018Z,-0.86
2018-03-18T00:47:54.262Z,-0.91
2018-03-18T00:48:53.982Z,-0.89
2018-03-18T00:49:54.205Z,-0.87
2018-03-18T00:50:54.323Z,-0.95
2018-03-18T00:51:53.882Z,-0.87
2018-03-18T00:52:53.592Z,-0.87
2018-03-18T00:53:54.100Z,-0.91
2018-03-18T00:54:54.072Z,-0.91
2018-03-18T00:55:54.076Z,-1
2018-03-18T00:56:54.036Z,-0.91
2018-03-18T00:57:53.816Z,-0.97
2018-03-18T00:58:53.439Z,-0.92
2018-03-18T00:59:53.989Z,-0.92
2018-03-18T01:00:53.910Z,-0.97
2018-03-18T01:01:53.633Z,-0.97
2018-03-18T01:02:53.704Z,-0.92
2018-03-18T01:03:53.573Z,-0.92
2018-03-18T01:04:53.811Z,-0.94
2018-03-18T01:05:53.791Z,-0.95
2018-03-18T01:06:53.919Z,-1.02
2018-03-18T01:07:54.043Z,-1.03
2018-03-18T01:08:53.712Z,-0.91
2018-03-18T01:09:53.413Z,-0.94
2018-03-18T01:10:53.449Z,-0.91
2018-03-18T01:11:53.511Z,-1.02
2018-03-18T01:12:53.139Z,-0.94
2018-03-18T01:13:53.309Z,-1
2018-03-18T01:14:53.611Z,-0.89
2018-03-18T01:15:53.531Z,-1.05
2018-03-18T01:16:53.508Z,-0.97
2018-03-18T01:17:53.201Z,-0.97
2018-03-18T01:18:53.180Z,-0.97
2018-03-18T01:19:53.155Z,-1.06
2018-03-18T01:20:53.395Z,-1.12
2018-03-18T01:21:53.096Z,-1.06
2018-03-18T01:22:52.861Z,-0.99
2018-03-18T01:23:53.140Z,-0.97
2018-03-18T01:24:52.754Z,-1.06
2018-03-18T01:25:53.028Z,-1.02
2018-03-18T01:26:53.230Z,-1.06
2018-03-18T01:27:53.212Z,-1.03
2018-03-18T01:28:52.917Z,-1.03
2018-03-18T01:29:52.880Z,-1.06
2018-03-18T01:30:52.627Z,-1.1
2018-03-18T01:31:52.878Z,-1.03
2018-03-18T01:32:53.128Z,-1.1
2018-03-18T01:33:52.580Z,-1.15
2018-03-18T01:34:53.021Z,-1.05
2018-03-18T01:35:53.060Z,-1.13
2018-03-18T01:36:52.699Z,-1.13
2018-03-18T01:37:52.724Z,-1.13
2018-03-18T01:38:53.141Z,-1.1
2018-03-18T01:39:52.718Z,-1.17
2018-03-18T01:40:52.718Z,-1.24
2018-03-18T01:41:52.590Z,-1.15
2018-03-18T01:42:52.888Z,-1.23
2018-03-18T01:43:52.434Z,-1.25
2018-03-18T01:44:52.819Z,-1.2
2018-03-18T01:45:52.211Z,-1.2
2018-03-18T01:46:52.498Z,-1.25
2018-03-18T01:47:52.434Z,-1.21
2018-03-18T01:48:52.771Z,-1.3
2018-03-18T01:49:52.752Z,-1.31
2018-03-18T01:50:52.556Z,-1.3
2018-03-18T01:51:52.627Z,-1.3
2018-03-18T01:52:52.047Z,-1.24
2018-03-18T01:53:52.513Z,-1.33
2018-03-18T01:54:52.338Z,-1.3
2018-03-18T01:55:52.001Z,-1.33
2018-03-18T01:56:52.197Z,-1.31
2018-03-18T01:57:52.492Z,-1.31
2018-03-18T01:58:52.121Z,-1.31
2018-03-18T01:59:52.096Z,-1.24
2018-03-18T02:00:51.802Z,-1.35
2018-03-18T02:01:51.777Z,-1.28
2018-03-18T02:02:52.281Z,-1.35
2018-03-18T02:03:51.984Z,-1.38
2018-03-18T02:04:51.693Z,-1.38
2018-03-18T02:05:51.933Z,-1.39
2018-03-18T02:06:52.223Z,-1.36
2018-03-18T02:07:51.880Z,-1.35
2018-03-18T02:08:51.850Z,-1.38
2018-03-18T02:09:51.822Z,-1.35
2018-03-18T02:10:51.558Z,-1.41
2018-03-18T02:11:52.035Z,-1.35
2018-03-18T02:12:51.740Z,-1.35
2018-03-18T02:13:51.545Z,-1.3
2018-03-18T02:14:51.992Z,-1.41
2018-03-18T02:15:51.404Z,-1.36
2018-03-18T02:16:51.630Z,-1.35
2018-03-18T02:17:51.878Z,-1.3
2018-03-18T02:18:51.702Z,-1.36
2018-03-18T02:19:51.549Z,-1.41
2018-03-18T02:20:51.800Z,-1.36
2018-03-18T02:21:51.507Z,-1.35
2018-03-18T02:22:51.477Z,-1.41
2018-03-18T02:23:51.181Z,-1.35
2018-03-18T02:24:51.164Z,-1.3
2018-03-18T02:25:51.135Z,-1.33
2018-03-18T02:26:51.633Z,-1.38
2018-03-18T02:27:51.363Z,-1.36
2018-03-18T02:28:51.061Z,-1.45
2018-03-18T02:29:51.554Z,-1.39
2018-03-18T02:30:51.537Z,-1.39
2018-03-18T02:31:51.499Z,-1.45
2018-03-18T02:32:51.481Z,-1.35
2018-03-18T02:33:51.455Z,-1.39
2018-03-18T02:34:51.163Z,-1.35
2018-03-18T02:35:51.439Z,-1.36
2018-03-18T02:36:51.171Z,-1.38
2018-03-18T02:37:51.077Z,-1.39
2018-03-18T02:38:51.060Z,-1.42
2018-03-18T02:39:51.325Z,-1.41
2018-03-18T02:40:51.405Z,-1.36
2018-03-18T02:41:50.703Z,-1.42
2018-03-18T02:42:51.225Z,-1.42
2018-03-18T02:43:50.980Z,-1.49
2018-03-18T02:44:50.630Z,-1.43
2018-03-18T02:45:50.866Z,-1.42
2018-03-18T02:46:51.119Z,-1.36
2018-03-18T02:47:50.549Z,-1.31
2018-03-18T02:48:50.791Z,-1.38
2018-03-18T02:49:51.027Z,-1.33
2018-03-18T02:50:50.462Z,-1.38
2018-03-18T02:51:50.722Z,-1.39
2018-03-18T02:52:50.943Z,-1.36
2018-03-18T02:53:51.054Z,-1.39
2018-03-18T02:54:50.897Z,-1.38
2018-03-18T02:55:50.634Z,-1.38
2018-03-18T02:56:50.639Z,-1.39
2018-03-18T02:57:50.638Z,-1.45
2018-03-18T02:58:50.570Z,-1.36
2018-03-18T02:59:50.806Z,-1.39
2018-03-18T03:00:50.486Z,-1.39
2018-03-18T03:01:50.179Z,-1.38
2018-03-18T03:02:50.419Z,-1.36
2018-03-18T03:03:50.451Z,-1.3
2018-03-18T03:04:50.686Z,-1.39
2018-03-18T03:05:50.658Z,-1.25
2018-03-18T03:06:50.572Z,-1.31
2018-03-18T03:07:50.298Z,-1.35
2018-03-18T03:08:50.320Z,-1.36
2018-03-18T03:09:50.372Z,-1.25
2018-03-18T03:10:50.468Z,-1.35
2018-03-18T03:11:50.212Z,-1.31
2018-03-18T03:12:50.405Z,-1.31
2018-03-18T03:13:50.138Z,-1.33
2018-03-18T03:14:49.871Z,-1.24
2018-03-18T03:15:50.057Z,-1.25
2018-03-18T03:16:50.042Z,-1.28
2018-03-18T03:17:50.269Z,-1.28
2018-03-18T03:18:49.978Z,-1.31
2018-03-18T03:19:50.227Z,-1.23
2018-03-18T03:20:49.927Z,-1.28
2018-03-18T03:21:50.164Z,-1.33
2018-03-18T03:22:49.871Z,-1.24
2018-03-18T03:23:49.842Z,-1.24
2018-03-18T03:24:50.088Z,-1.27
2018-03-18T03:25:50.062Z,-1.27
2018-03-18T03:26:49.769Z,-1.24
2018-03-18T03:27:49.747Z,-1.31
2018-03-18T03:28:49.448Z,-1.27
2018-03-18T03:29:49.685Z,-1.35
2018-03-18T03:30:49.685Z,-1.31
2018-03-18T03:31:49.369Z,-1.27
2018-03-18T03:32:49.615Z,-1.28
2018-03-18T03:33:49.852Z,-1.27
2018-03-18T03:34:49.548Z,-1.3
2018-03-18T03:35:49.789Z,-1.27
2018-03-18T03:36:49.497Z,-1.36
2018-03-18T03:37:49.209Z,-1.25
2018-03-18T03:38:49.184Z,-1.25
2018-03-18T03:39:49.689Z,-1.39
2018-03-18T03:40:49.404Z,-1.36
2018-03-18T03:41:49.368Z,-1.25
2018-03-18T03:42:49.084Z,-1.39
2018-03-18T03:43:49.318Z,-1.39
2018-03-18T03:44:49.283Z,-1.36
2018-03-18T03:45:49.258Z,-1.39
2018-03-18T03:46:49.236Z,-1.39
2018-03-18T03:47:49.220Z,-1.41
2018-03-18T03:48:48.912Z,-1.33
2018-03-18T03:49:49.150Z,-1.35
2018-03-18T03:50:49.596Z,-1.38
2018-03-18T03:51:49.098Z,-1.36
2018-03-18T03:52:49.079Z,-1.31
2018-03-18T03:53:49.058Z,-1.38
2018-03-18T03:54:49.021Z,-1.36
2018-03-18T03:55:49.258Z,-1.38
2018-03-18T03:56:49.251Z,-1.45
2018-03-18T03:57:48.945Z,-1.38
2018-03-18T03:58:48.647Z,-1.31
2018-03-18T03:59:48.888Z,-1.41
2018-03-18T04:00:48.861Z,-1.39
2018-03-18T04:01:48.840Z,-1.45
2018-03-18T04:02:48.805Z,-1.42
2018-03-18T04:03:48.784Z,-1.36
2018-03-18T04:04:49.024Z,-1.35
2018-03-18T04:05:48.992Z,-1.43
2018-03-18T04:06:48.710Z,-1.39
2018-03-18T04:07:48.675Z,-1.38
2018-03-18T04:08:48.650Z,-1.45
2018-03-18T04:09:48.883Z,-1.45
2018-03-18T04:10:48.860Z,-1.39
2018-03-18T04:11:48.833Z,-1.45
2018-03-18T04:12:48.290Z,-1.39
2018-03-18T04:13:48.787Z,-1.43
2018-03-18T04:14:48.490Z,-1.35
2018-03-18T04:15:48.461Z,-1.42
2018-03-18T04:16:48.170Z,-1.45
2018-03-18T04:17:48.677Z,-1.38
2018-03-18T04:18:48.121Z,-1.39
2018-03-18T04:19:48.356Z,-1.43
2018-03-18T04:20:48.339Z,-1.48
2018-03-18T04:21:48.040Z,-1.54
2018-03-18T04:22:48.273Z,-1.49
2018-03-18T04:23:47.983Z,-1.51
2018-03-18T04:24:47.953Z,-1.43
2018-03-18T04:25:48.474Z,-1.57
2018-03-18T04:26:48.179Z,-1.43
2018-03-18T04:27:48.145Z,-1.45
2018-03-18T04:28:47.846Z,-1.48
2018-03-18T04:29:48.092Z,-1.45
2018-03-18T04:30:48.065Z,-1.51
2018-03-18T04:31:48.046Z,-1.53
2018-03-18T04:32:48.326Z,-1.46
2018-03-18T04:33:47.717Z,-1.45
2018-03-18T04:34:48.222Z,-1.49
2018-03-18T04:35:47.664Z,-1.53
2018-03-18T04:36:47.641Z,-1.66
2018-03-18T04:37:47.614Z,-1.49
2018-03-18T04:38:48.110Z,-1.62
2018-03-18T04:39:48.101Z,-1.63
2018-03-18T04:40:47.527Z,-1.6
2018-03-18T04:41:47.773Z,-1.64
2018-03-18T04:42:47.736Z,-1.62
2018-03-18T04:43:47.983Z,-1.77
2018-03-18T04:44:47.424Z,-1.67
2018-03-18T04:45:47.397Z,-1.63
2018-03-18T04:46:47.630Z,-1.74
2018-03-18T04:47:47.606Z,-1.67
2018-03-18T04:48:47.844Z,-1.64
2018-03-18T04:49:47.817Z,-1.74
2018-03-18T04:50:47.526Z,-1.67
2018-03-18T04:51:47.231Z,-1.75
2018-03-18T04:52:47.474Z,-1.64
2018-03-18T04:53:47.457Z,-1.75
2018-03-18T04:54:47.418Z,-1.72
2018-03-18T04:55:47.656Z,-1.66
2018-03-18T04:56:47.102Z,-1.64
2018-03-18T04:57:47.341Z,-1.72
2018-03-18T04:58:47.311Z,-1.67
2018-03-18T04:59:47.562Z,-1.62
2018-03-18T05:00:47.261Z,-1.67
2018-03-18T05:01:47.242Z,-1.66
2018-03-18T05:02:47.205Z,-1.75
2018-03-18T05:03:47.447Z,-1.67
2018-03-18T05:04:46.890Z,-1.67
2018-03-18T05:05:47.126Z,-1.66
2018-03-18T05:06:47.094Z,-1.69
2018-03-18T05:07:47.336Z,-1.67
2018-03-18T05:08:47.044Z,-1.69
2018-03-18T05:09:46.750Z,-1.69
2018-03-18T05:10:47.253Z,-1.66
2018-03-18T05:11:47.013Z,-1.72
2018-03-18T05:12:47.000Z,-1.72
2018-03-18T05:13:47.181Z,-1.72
2018-03-18T05:14:46.884Z,-1.69
2018-03-18T05:15:46.856Z,-1.69
2018-03-18T05:16:47.144Z,-1.64
2018-03-18T05:17:47.079Z,-1.69
2018-03-18T05:18:46.772Z,-1.7
2018-03-18T05:19:46.748Z,-1.67
2018-03-18T05:20:46.716Z,-1.7
2018-03-18T05:21:46.432Z,-1.72
2018-03-18T05:22:46.410Z,-1.72
2018-03-18T05:23:46.903Z,-1.74
2018-03-18T05:24:46.874Z,-1.75
2018-03-18T05:25:46.597Z,-1.72
2018-03-18T05:26:46.561Z,-1.7
2018-03-18T05:27:46.806Z,-1.74
2018-03-18T05:28:46.773Z,-1.72
2018-03-18T05:29:46.481Z,-1.7
2018-03-18T05:30:46.719Z,-1.75
2018-03-18T05:31:46.697Z,-1.72
2018-03-18T05:32:46.135Z,-1.72
2018-03-18T05:33:46.373Z,-1.69
2018-03-18T05:34:46.342Z,-1.72
2018-03-18T05:35:46.587Z,-1.72
2018-03-18T05:36:46.074Z,-1.72
2018-03-18T05:37:46.003Z,-1.77
2018-03-18T05:38:46.237Z,-1.7
2018-03-18T05:39:45.945Z,-1.78
2018-03-18T05:40:46.505Z,-1.72
2018-03-18T05:41:46.419Z,-1.72
2018-03-18T05:42:46.181Z,-1.74
2018-03-18T05:43:45.833Z,-1.77
2018-03-18T05:44:46.337Z,-1.74
2018-03-18T05:45:46.050Z,-1.72
2018-03-18T05:46:46.292Z,-1.74
2018-03-18T05:47:45.996Z,-1.72
2018-03-18T05:48:45.704Z,-1.75
2018-03-18T05:49:45.936Z,-1.72
2018-03-18T05:50:46.121Z,-1.69
2018-03-18T05:51:45.891Z,-1.72
2018-03-18T05:52:45.859Z,-1.74
2018-03-18T05:53:45.839Z,-1.69
2018-03-18T05:54:45.544Z,-1.7
2018-03-18T05:55:45.824Z,-1.66
2018-03-18T05:56:45.749Z,-1.64
2018-03-18T05:57:45.727Z,-1.67
2018-03-18T05:58:45.964Z,-1.75
2018-03-18T05:59:45.670Z,-1.77
2018-03-18T06:00:45.645Z,-1.72
2018-03-18T06:01:45.892Z,-1.75
2018-03-18T06:02:45.592Z,-1.66
2018-03-18T06:03:45.301Z,-1.69
2018-03-18T06:04:45.819Z,-1.62
2018-03-18T06:05:45.779Z,-1.7
2018-03-18T06:06:45.225Z,-1.69
2018-03-18T06:07:45.468Z,-1.66
2018-03-18T06:08:45.160Z,-1.7
2018-03-18T06:09:45.135Z,-1.72
2018-03-18T06:10:45.382Z,-1.7
2018-03-18T06:11:45.359Z,-1.7
2018-03-18T06:12:45.333Z,-1.7
2018-03-18T06:13:45.560Z,-1.7
2018-03-18T06:14:45.265Z,-1.72
2018-03-18T06:15:45.264Z,-1.69
2018-03-18T06:16:45.215Z,-1.67
2018-03-18T06:17:45.186Z,-1.7
2018-03-18T06:18:45.428Z,-1.69
2018-03-18T06:19:45.413Z,-1.64
2018-03-18T06:20:45.108Z,-1.72
2018-03-18T06:21:45.076Z,-1.63
2018-03-18T06:22:45.046Z,-1.62
2018-03-18T06:23:45.043Z,-1.69
2018-03-18T06:24:44.750Z,-1.74
2018-03-18T06:25:44.975Z,-1.62
2018-03-18T06:26:45.215Z,-1.66
2018-03-18T06:27:44.963Z,-1.66
2018-03-18T06:28:45.164Z,-1.66
2018-03-18T06:29:44.600Z,-1.64
2018-03-18T06:30:45.109Z,-1.7
2018-03-18T06:31:45.080Z,-1.67
2018-03-18T06:32:45.043Z,-1.67
2018-03-18T06:33:44.756Z,-1.6
2018-03-18T06:34:44.728Z,-1.69
2018-03-18T06:35:44.708Z,-1.75
2018-03-18T06:36:44.950Z,-1.6
2018-03-18T06:37:44.917Z,-1.66
2018-03-18T06:38:44.625Z,-1.66
2018-03-18T06:39:44.873Z,-1.62
2018-03-18T06:40:44.571Z,-1.66
2018-03-18T06:41:44.541Z,-1.69
2018-03-18T06:42:44.838Z,-1.66
2018-03-18T06:43:44.221Z,-1.63
2018-03-18T06:44:44.742Z,-1.59
2018-03-18T06:45:44.699Z,-1.49
2018-03-18T06:46:44.148Z,-1.49
2018-03-18T06:47:44.461Z,-1.43
2018-03-18T06:48:44.366Z,-1.56
2018-03-18T06:49:44.062Z,-1.48
2018-03-18T06:50:44.296Z,-1.48
2018-03-18T06:51:44.534Z,-1.53
2018-03-18T06:52:44.248Z,-1.51
2018-03-18T06:53:43.951Z,-1.53
2018-03-18T06:54:44.468Z,-1.45
2018-03-18T06:55:44.168Z,-1.48
2018-03-18T06:56:44.137Z,-1.46
2018-03-18T06:57:44.411Z,-1.45
2018-03-18T06:58:44.087Z,-1.46
2018-03-18T06:59:43.800Z,-1.45
2018-03-18T07:00:44.033Z,-1.49
2018-03-18T07:01:44.090Z,-1.51
2018-03-18T07:02:43.717Z,-1.51
2018-03-18T07:03:44.236Z,-1.48
2018-03-18T07:04:44.203Z,-1.43
2018-03-18T07:05:43.902Z,-1.42
2018-03-18T07:06:43.897Z,-1.36
2018-03-18T07:07:43.938Z,-1.36
2018-03-18T07:08:43.564Z,-1.33
2018-03-18T07:09:43.807Z,-1.39
2018-03-18T07:10:44.043Z,-1.27
2018-03-18T07:11:43.479Z,-1.28
2018-03-18T07:12:43.981Z,-1.35
2018-03-18T07:13:43.691Z,-1.2
2018-03-18T07:14:43.667Z,-1.2
2018-03-18T07:15:43.908Z,-1.21
2018-03-18T07:16:43.883Z,-1.21
2018-03-18T07:17:43.320Z,-1.21
2018-03-18T07:18:43.558Z,-1.2
2018-03-18T07:19:43.805Z,-1.1
2018-03-18T07:20:43.506Z,-1.06
2018-03-18T07:21:43.753Z,-1.09
2018-03-18T07:22:43.453Z,-1.12
2018-03-18T07:23:43.437Z,-1.1
2018-03-18T07:24:43.404Z,-1.13
2018-03-18T07:25:43.647Z,-1.1
2018-03-18T07:26:43.345Z,-1.02
2018-03-18T07:27:43.588Z,-1.1
2018-03-18T07:28:43.559Z,-1.12
2018-03-18T07:29:43.282Z,-1.07
2018-03-18T07:30:42.979Z,-1.06
2018-03-18T07:31:43.220Z,-1.02
2018-03-18T07:32:42.930Z,-1.05
2018-03-18T07:33:43.167Z,-1.13
2018-03-18T07:34:43.417Z,-1.15
2018-03-18T07:35:43.111Z,-1.06
2018-03-18T07:36:43.144Z,-0.94
2018-03-18T07:37:43.334Z,-0.97
2018-03-18T07:38:42.806Z,-1.02
2018-03-18T07:39:43.035Z,-1.06
2018-03-18T07:40:42.982Z,-1.09
2018-03-18T07:41:42.969Z,-1.05
2018-03-18T07:42:43.201Z,-1.03
2018-03-18T07:43:43.228Z,-1.06
2018-03-18T07:44:43.152Z,-1.02
2018-03-18T07:45:42.874Z,-1.09
2018-03-18T07:46:42.824Z,-1.05
2018-03-18T07:47:42.538Z,-1.07
2018-03-18T07:48:42.779Z,-1.02
2018-03-18T07:49:42.749Z,-0.95
2018-03-18T07:50:42.929Z,-1.02
2018-03-18T07:51:42.704Z,-0.94
2018-03-18T07:52:42.937Z,-1.02
2018-03-18T07:53:42.915Z,-0.95
2018-03-18T07:54:42.360Z,-1
2018-03-18T07:55:42.595Z,-0.97
2018-03-18T07:56:42.304Z,-1
2018-03-18T07:57:42.546Z,-0.91
2018-03-18T07:58:42.535Z,-0.89
2018-03-18T07:59:43.082Z,-0.83
2018-03-18T08:00:42.492Z,-0.84
2018-03-18T08:01:42.446Z,-0.86
2018-03-18T08:02:42.414Z,-0.8
2018-03-18T08:03:42.394Z,-0.83
2018-03-18T08:04:42.360Z,-0.86
2018-03-18T08:05:42.072Z,-0.75
2018-03-18T08:06:42.051Z,-0.77
2018-03-18T08:07:42.548Z,-0.69
2018-03-18T08:08:41.999Z,-0.63
2018-03-18T08:09:41.976Z,-0.68
2018-03-18T08:10:42.476Z,-0.65
2018-03-18T08:11:42.184Z,-0.57
2018-03-18T08:12:42.155Z,-0.51
2018-03-18T08:13:41.869Z,-0.54
2018-03-18T08:14:42.111Z,-0.54
2018-03-18T08:15:42.092Z,-0.47
2018-03-18T08:16:42.351Z,-0.47
2018-03-18T08:17:41.774Z,-0.54
2018-03-18T08:18:41.743Z,-0.47
2018-03-18T08:19:42.268Z,-0.45
2018-03-18T08:20:42.228Z,-0.45
2018-03-18T08:21:41.663Z,-0.41
2018-03-18T08:22:41.903Z,-0.44
2018-03-18T08:23:42.153Z,-0.47
2018-03-18T08:24:42.128Z,-0.42
2018-03-18T08:25:42.101Z,-0.5
2018-03-18T08:26:41.546Z,-0.41
2018-03-18T08:27:42.127Z,-0.37
2018-03-18T08:28:41.755Z,-0.27
2018-03-18T08:29:41.726Z,-0.18
2018-03-18T08:30:41.975Z,-0.19
2018-03-18T08:31:41.943Z,-0.15
2018-03-18T08:32:41.660Z,-0.15
2018-03-18T08:33:41.898Z,-0.15
2018-03-18T08:34:41.608Z,-0.15
2018-03-18T08:35:41.850Z,-0.18
2018-03-18T08:36:41.560Z,-0.13
2018-03-18T08:37:41.534Z,-0.05
2018-03-18T08:38:41.508Z,0
2018-03-18T08:39:41.488Z,0.28
2018-03-18T08:40:41.458Z,0.31
2018-03-18T08:41:41.434Z,0.28
2018-03-18T08:42:41.409Z,0.33
2018-03-18T08:43:41.385Z,0.45
2018-03-18T08:44:41.630Z,0.41
2018-03-18T08:45:41.334Z,0.38
2018-03-18T08:46:41.096Z,0.45
2018-03-18T08:47:41.287Z,0.51
2018-03-18T08:48:41.265Z,0.58
2018-03-18T08:49:41.504Z,0.71
2018-03-18T08:50:40.950Z,0.67
2018-03-18T08:51:41.209Z,0.71
2018-03-18T08:52:40.905Z,0.94
2018-03-18T08:53:40.886Z,0.82
2018-03-18T08:54:41.115Z,0.88
2018-03-18T08:55:41.099Z,0.98
2018-03-18T08:56:41.070Z,1.24
2018-03-18T08:57:40.787Z,1.18
2018-03-18T08:58:41.027Z,1.12
2018-03-18T08:59:41.283Z,1.15
2018-03-18T09:00:40.993Z,1.04
2018-03-18T09:01:40.958Z,1
2018-03-18T09:02:40.933Z,1.04
2018-03-18T09:03:41.191Z,1.07
2018-03-18T09:04:40.894Z,1.16
2018-03-18T09:05:40.888Z,1.14
2018-03-18T09:06:40.903Z,1.18
2018-03-18T09:07:41.091Z,1.24
2018-03-18T09:08:40.527Z,1.1
2018-03-18T09:09:41.037Z,1.1
2018-03-18T09:10:40.751Z,1.07
2018-03-18T09:11:40.746Z,1.15
2018-03-18T09:12:40.716Z,1.06
2018-03-18T09:13:40.962Z,1.18
2018-03-18T09:14:40.654Z,1.19
2018-03-18T09:15:40.636Z,1.16
2018-03-18T09:16:40.349Z,1.25
2018-03-18T09:17:40.587Z,1.06
2018-03-18T09:18:40.302Z,1.07
2018-03-18T09:19:40.808Z,0.85
2018-03-18T09:20:40.265Z,1.06
2018-03-18T09:21:40.234Z,0.94
2018-03-18T09:22:40.746Z,0.88
2018-03-18T09:23:40.718Z,0.9
2018-03-18T09:24:40.432Z,0.9
2018-03-18T09:25:40.407Z,0.98
2018-03-18T09:26:40.124Z,1.03
2018-03-18T09:27:40.373Z,1.21
2018-03-18T09:28:40.606Z,1.25
2018-03-18T09:29:40.324Z,1.18
2018-03-18T09:30:40.298Z,1.07
2018-03-18T09:31:40.278Z,0.98
2018-03-18T09:32:40.514Z,1
2018-03-18T09:33:40.224Z,1.01
2018-03-18T09:34:40.201Z,1.06
2018-03-18T09:35:39.920Z,1.12
2018-03-18T09:36:40.148Z,1.1
2018-03-18T09:37:40.134Z,1.18
2018-03-18T09:38:40.104Z,1.18
2018-03-18T09:39:39.822Z,1.34
2018-03-18T09:40:40.342Z,1.24
2018-03-18T09:41:40.044Z,1.4
2018-03-18T09:42:40.019Z,1.33
2018-03-18T09:43:40.067Z,1.43
2018-03-18T09:44:40.236Z,1.58
2018-03-18T09:45:39.949Z,1.68
2018-03-18T09:46:39.932Z,1.72
2018-03-18T09:47:39.636Z,1.82
2018-03-18T09:48:39.934Z,2.12
2018-03-18T09:49:39.872Z,2.3
2018-03-18T09:50:40.455Z,2.44
2018-03-18T09:51:39.558Z,2.79
2018-03-18T09:52:39.797Z,3.12
2018-03-18T09:53:39.784Z,3.2
2018-03-18T09:54:39.749Z,3.12
2018-03-18T09:55:39.742Z,3.06
2018-03-18T09:56:39.714Z,3.03
2018-03-18T09:57:39.965Z,3.23
2018-03-18T09:58:39.415Z,2.85
2018-03-18T09:59:39.915Z,2.73
2018-03-18T10:00:39.894Z,2.52
2018-03-18T10:01:39.881Z,2.4
2018-03-18T10:02:40.057Z,2.33
2018-03-18T10:03:39.563Z,2.3
2018-03-18T10:04:39.544Z,2.12
2018-03-18T10:05:39.790Z,1.97
2018-03-18T10:06:39.780Z,1.68
2018-03-18T10:07:39.745Z,1.79
2018-03-18T10:08:39.460Z,1.75
2018-03-18T10:09:39.181Z,1.6
2018-03-18T10:10:39.469Z,1.62
2018-03-18T10:11:39.411Z,1.54
2018-03-18T10:12:39.384Z,1.5
2018-03-18T10:13:39.623Z,1.52
2018-03-18T10:14:39.337Z,1.65
2018-03-18T10:15:39.571Z,1.57
2018-03-18T10:16:39.292Z,1.62
2018-03-18T10:17:39.271Z,1.68
2018-03-18T10:18:39.536Z,1.79
2018-03-18T10:19:39.227Z,1.75
2018-03-18T10:20:39.200Z,1.72
2018-03-18T10:21:39.206Z,1.72
2018-03-18T10:22:39.426Z,1.72
2018-03-18T10:23:39.399Z,1.64
2018-03-18T10:24:39.128Z,1.61
2018-03-18T10:25:39.201Z,1.54
2018-03-18T10:26:39.071Z,1.6
2018-03-18T10:27:38.785Z,1.72
2018-03-18T10:28:38.759Z,1.83
2018-03-18T10:29:38.736Z,1.85
2018-03-18T10:30:38.724Z,1.99
2018-03-18T10:31:38.960Z,1.97
2018-03-18T10:32:38.971Z,2.01
2018-03-18T10:33:39.187Z,2.15
2018-03-18T10:34:38.635Z,2.33
2018-03-18T10:35:38.873Z,2.28
2018-03-18T10:36:38.853Z,2.33
2018-03-18T10:37:39.089Z,2.37
2018-03-18T10:38:39.074Z,2.46
2018-03-18T10:39:39.132Z,2.37
2018-03-18T10:40:39.033Z,2.4
2018-03-18T10:41:38.736Z,2.31
2018-03-18T10:42:38.723Z,2.35
2018-03-18T10:43:38.966Z,2.37
2018-03-18T10:44:38.686Z,2.4
2018-03-18T10:45:38.655Z,2.33
2018-03-18T10:46:38.369Z,2.34
2018-03-18T10:47:38.874Z,2.4
2018-03-18T10:48:38.880Z,2.48
2018-03-18T10:49:38.309Z,2.31
2018-03-18T10:50:38.813Z,2.34
2018-03-18T10:51:38.530Z,2.34
2018-03-18T10:52:38.516Z,2.49
2018-03-18T10:53:38.229Z,2.51
2018-03-18T10:54:38.468Z,2.38
2018-03-18T10:55:38.181Z,2.41
2018-03-18T10:56:38.830Z,2.46
2018-03-18T10:57:38.405Z,2.59
2018-03-18T10:58:38.394Z,2.56
2018-03-18T10:59:38.366Z,2.44
2018-03-18T11:00:38.081Z,2.58
2018-03-18T11:01:38.599Z,2.56
2018-03-18T11:02:38.296Z,2.69
2018-03-18T11:03:38.277Z,2.7
2018-03-18T11:04:38.259Z,2.7
2018-03-18T11:05:38.236Z,2.76
2018-03-18T11:06:37.951Z,2.97
2018-03-18T11:07:38.197Z,3.13
2018-03-18T11:08:37.909Z,3.16
2018-03-18T11:09:38.160Z,3.2
2018-03-18T11:10:38.137Z,3.28
2018-03-18T11:11:38.131Z,3.52
2018-03-18T11:12:38.097Z,3.76
2018-03-18T11:13:38.344Z,4
2018-03-18T11:14:38.056Z,4.04
2018-03-18T11:15:37.781Z,4.21
2018-03-18T11:16:38.286Z,4.55
2018-03-18T11:17:38.008Z,4.76
2018-03-18T11:18:37.980Z,5.27
2018-03-18T11:19:37.968Z,5.55
2018-03-18T11:20:37.943Z,5.57
2018-03-18T11:21:37.938Z,5.77
2018-03-18T11:22:37.648Z,5.89
2018-03-18T11:23:38.160Z,5.86
2018-03-18T11:24:38.144Z,5.78
2018-03-18T11:25:37.868Z,5.88
2018-03-18T11:26:37.885Z,5.85
2018-03-18T11:27:37.572Z,6.07
2018-03-18T11:28:37.848Z,5.93
2018-03-18T11:29:37.807Z,5.88
2018-03-18T11:30:38.066Z,5.88
2018-03-18T11:31:37.779Z,5.6
2018-03-18T11:32:37.766Z,5.6
2018-03-18T11:33:37.754Z,5.71
2018-03-18T11:34:37.736Z,5.63
2018-03-18T11:35:37.788Z,5.45
2018-03-18T11:36:37.438Z,5.16
2018-03-18T11:37:37.696Z,5.01
2018-03-18T11:38:38.051Z,5.14
2018-03-18T11:39:37.666Z,5.14
2018-03-18T11:40:37.654Z,5.19
2018-03-18T11:41:37.903Z,5.31
2018-03-18T11:42:37.630Z,5.23
2018-03-18T11:43:37.676Z,5.28
2018-03-18T11:44:37.332Z,5.5
2018-03-18T11:45:37.841Z,5.43
2018-03-18T11:46:37.839Z,5.32
2018-03-18T11:47:37.814Z,5.12
2018-03-18T11:48:37.531Z,5.27
2018-03-18T11:49:37.576Z,5.12
2018-03-18T11:50:37.507Z,5.09
2018-03-18T11:51:37.497Z,5.09
2018-03-18T11:52:37.734Z,5.13
2018-03-18T11:53:37.729Z,5.25
2018-03-18T11:54:37.440Z,5.45
2018-03-18T11:55:37.428Z,5.63
2018-03-18T11:56:37.466Z,5.57
2018-03-18T11:57:37.676Z,5.63
2018-03-18T11:58:37.650Z,5.68
2018-03-18T11:59:37.371Z,5.73
2018-03-18T12:00:37.088Z,5.93
2018-03-18T12:01:37.337Z,6.28
2018-03-18T12:02:37.325Z,6.3
2018-03-18T12:03:37.311Z,6.56
2018-03-18T12:04:37.041Z,6.73
2018-03-18T12:05:37.562Z,6.99
2018-03-18T12:06:37.572Z,7.2
2018-03-18T12:07:37.253Z,7.13
2018-03-18T12:08:37.251Z,6.97
2018-03-18T12:09:37.496Z,6.99
2018-03-18T12:10:37.484Z,6.71
2018-03-18T12:11:37.210Z,6.68
2018-03-18T12:12:37.497Z,6.61
2018-03-18T12:13:37.454Z,6.68
2018-03-18T12:14:36.910Z,6.95
2018-03-18T12:15:36.892Z,7.15
2018-03-18T12:16:37.421Z,7.4
2018-03-18T12:17:37.405Z,7.55
2018-03-18T12:18:37.122Z,7.16
2018-03-18T12:19:36.847Z,6.69
2018-03-18T12:20:37.098Z,6.22
2018-03-18T12:21:36.825Z,5.98
2018-03-18T12:22:36.816Z,6.04
2018-03-18T12:23:36.806Z,5.73
2018-03-18T12:24:37.052Z,5.57
2018-03-18T12:25:37.311Z,5.34
2018-03-18T12:26:37.286Z,5.19
2018-03-18T12:27:37.029Z,4.99
2018-03-18T12:28:37.262Z,4.84
2018-03-18T12:29:37.266Z,4.76
2018-03-18T12:30:37.243Z,4.69
2018-03-18T12:31:36.962Z,4.4
2018-03-18T12:32:36.943Z,4.39
2018-03-18T12:33:36.930Z,4.34
2018-03-18T12:34:37.171Z,4.32
2018-03-18T12:35:36.627Z,4.34
2018-03-18T12:36:36.615Z,4.28
2018-03-18T12:37:37.135Z,4.25
2018-03-18T12:38:36.842Z,4.28
2018-03-18T12:39:37.093Z,4.46
2018-03-18T12:40:36.545Z,4.43
2018-03-18T12:41:37.066Z,4.39
2018-03-18T12:42:36.779Z,4.26
2018-03-18T12:43:37.030Z,4.22
2018-03-18T12:44:36.491Z,4.21
2018-03-18T12:45:36.747Z,4.07
2018-03-18T12:46:36.972Z,4.22
2018-03-18T12:47:36.982Z,4.12
2018-03-18T12:48:36.693Z,4.14
2018-03-18T12:49:36.422Z,4.06
2018-03-18T12:50:36.377Z,4.1
2018-03-18T12:51:36.636Z,4.08
2018-03-18T12:52:36.602Z,4.12
2018-03-18T12:53:36.902Z,3.97
2018-03-18T12:54:36.604Z,3.98
2018-03-18T12:55:36.553Z,3.89
2018-03-18T12:56:36.888Z,3.92
2018-03-18T12:57:36.516Z,3.94
2018-03-18T12:58:36.786Z,3.92
2018-03-18T12:59:36.487Z,3.9
2018-03-18T13:00:36.485Z,3.75
2018-03-18T13:01:36.721Z,3.75
2018-03-18T13:02:36.696Z,3.76
2018-03-18T13:03:36.682Z,4
2018-03-18T13:04:36.455Z,4.01